Seefeld, Austria

11:14 AM CET on December 04, 2016 (GMT +0100)
Seefeld Tirol, Austria, Apartm.Residenz | | Change Station

Elev 3871 ft 47.33 °N, 11.19 °E | Updated 10 minutes ago

27.1 °F
Feels Like 27 °F
N
1.2
Wind Variable Wind from SW

Today
High -- | Low -- °F
--% Chance of Precip.
Yesterday
High -- | Low -- °F
Precip. -- in
Pressure 30.30 in
Visibility -9999.0 miles
Clouds
Windchill 27 °F
Dew Point 26 °F
Humidity 98%
Rainfall Not available.
Snow Depth Not available.
7:45 AM 4:25 PM
Waxing Crescent, 21% visible
METAR LOWI 040950Z VRB01KT CAVOK M01/M05 Q1026 NOSIG
Pressure 30.30 in
Visibility -9999.0 miles
Clouds
Windchill 27 °F
Dew Point 26 °F
Humidity 98%
Rainfall Not available.
Snow Depth Not available.
7:45 AM 4:25 PM
Waxing Crescent, 21% visible
METAR LOWI 040950Z VRB01KT CAVOK M01/M05 Q1026 NOSIG

10-Day Weather Forecast

×

Almanac

Astronomy

Dec. 04, 2016 Rise Set
Actual Time
Civil Twilight
Nautical Twilight
Astronomical Twilight
Moon
Length of Visible Light
Length of Day
Tomorrow will be .
, % of the Moon is Illuminated

Today's Extremes

Country Highs Country Lows

Community

WunderPhotos

Upload Photos

1,955,587 photos uploaded!

WunderBlog® & News

Nearby

Air Quality

  Air Quality AQ Index Pollutant
Not available.

Snow Depth

Station Depth Elevation

Earthquake Activity

City Distance Mag. Time & Date
Minimum magnitude displayed is 2.5.

Coastal Water Temperatures

Place Temperature

Stations

Nearby Weather Stations

Station Location Temp. Windchill Dew Point Humidity Wind Precip. Elev Updated Type